Nearby METAR Reports

 

KSJC - San Jose, California, USA
Distance from station: NE 9mi, 14km
Updated: Sun, 02-25-2018 4:53am CST
Clear
Clear
 Wind from calm
Wind: Calm
Temperature: 43°F , 6°C
Dew Point: 37°F , 3°C
Humidity: 81%
Barometer: 30.32 inHg , 1026.8 hPa
Clouds: Clear
Visibility: 10 miles , 16 km
2018/02/25 10:53 KSJC 251053Z AUTO 00000KT 10SM CLR 06/03 A3032 RMK AO2 SLP267 T00560028 $
KNUQ - Moffett Nas/Mtn, California, USA
Distance from station: N 9mi, 14km
Updated: Sun, 02-25-2018 4:56am CST
Clear
Clear
 Wind from W
Wind: W 3 mph , 6 km/h
Temperature: 43°F , 6°C
Dew Point: 37°F , 3°C
Humidity: 81%
Barometer: 30.33 inHg , 1027.1 hPa
Clouds: Clear
Visibility: 10 miles , 16 km
2018/02/25 10:56 KNUQ 251056Z 27003KT 10SM CLR 06/03 A3033 RMK AO2 SLP274 T00560033
 
KPAO - Palo Alto, California, USA
Distance from station: NNW 14mi, 23km
Updated: Sat, 02-24-2018 10:47pm CST
NOT Current
Clear
Clear
 Wind from WNW
Wind: WNW 12 mph , 19 km/h
Barometer: 30.33 inHg , 1027.1 hPa
Clouds: Clear
Visibility: 10 miles , 16 km
2018/02/25 04:47 KPAO 250447Z 30010KT 10SM SKC A3033
KRHV - San Jose/Reid, California, USA
Distance from station: ENE 12mi, 19km
Updated: Sat, 02-24-2018 11:59pm CST
NOT Current
Few Clouds
Few Clouds
 Wind from NNW
Wind: NNW 7 mph , 11 km/h
Temperature: 50°F , 10°C
Wind Chill: 47°F , 8°C
Dew Point: 43°F , 6°C
Humidity: 76%
Barometer: 30.32 inHg , 1026.8 hPa
Clouds: Few Clouds
Visibility: 10 miles , 16 km
Cloud details: Few Clouds 1500 ft
2018/02/25 05:59 KRHV 250559Z 33006KT 10SM FEW015 10/06 A3032 RMK LAST
 
KOAK - Oakland, California, USA
Distance from station: NNW 31mi, 50km
Updated: Sun, 02-25-2018 4:53am CST
Clear
Clear
 Wind from NNW
Wind: NNW 3 mph , 6 km/h
Temperature: 43°F , 6°C
Dew Point: 37°F , 3°C
Humidity: 81%
Barometer: 30.33 inHg , 1027.1 hPa
Clouds: Clear
Visibility: 10 miles , 16 km
2018/02/25 10:53 KOAK 251053Z 34003KT 10SM CLR 06/03 A3033 RMK AO2 SLP271 T00560033
KSQL - San Carlos Airpo, California, USA
Distance from station: NW 21mi, 34km
Updated: Sun, 02-25-2018 5:35am CST
Clear
Clear
 Wind from calm
Wind: Calm
Temperature: 41°F , 5°C
Dew Point: 37°F , 3°C
Humidity: 87%
Barometer: 30.33 inHg , 1027.1 hPa
Clouds: Clear
Visibility: 10 miles , 16 km
2018/02/25 11:35 KSQL 251135Z AUTO 00000KT 10SM CLR 05/03 A3033 RMK AO2
 
KSFO - San Francisco, California, USA
Distance from station: NW 30mi, 49km
Updated: Sun, 02-25-2018 4:56am CST
Clear
Clear
 Wind from calm
Wind: Calm
Temperature: 43°F , 6°C
Dew Point: 36°F , 2°C
Humidity: 76%
Barometer: 30.33 inHg , 1027.1 hPa
Clouds: Clear
Visibility: 10 miles , 16 km
2018/02/25 10:56 KSFO 251056Z 00000KT 10SM CLR 06/02 A3033 RMK AO2 SLP269 T00610022 $
KE16 - San Martin, California, USA
Distance from station: ESE 27mi, 43km
Updated: Sun, 02-25-2018 5:35am CST
Mostly cloudy
Mostly cloudy
 Wind from calm
Wind: Calm
Temperature: 39°F , 4°C
Dew Point: 36°F , 2°C
Humidity: 87%
Barometer: 30.32 inHg , 1026.8 hPa
Clouds: Mostly cloudy
Visibility: 10 miles , 16 km
Cloud details: Mostly cloudy 1400 ft
2018/02/25 11:35 KE16 251135Z AUTO 00000KT 10SM BKN014 04/02 A3032 RMK AO2
 
KWVI - Watsonville, California, USA
Distance from station: SSE 27mi, 44km
Updated: Sun, 02-25-2018 4:53am CST
Clear
Clear
 Wind from calm
Wind: Calm
Temperature: 36°F , 2°C
Dew Point: 34°F , 1°C
Humidity: 93%
Barometer: 30.31 inHg , 1026.4 hPa
Clouds: Clear
Visibility: 10 miles , 16 km
2018/02/25 10:53 KWVI 251053Z AUTO 00000KT 10SM CLR 02/01 A3031 RMK AO2 SLP265 T00220006
KHAF - Half Moon Bay, California, USA
Distance from station: WNW 31mi, 50km
Updated: Sun, 02-25-2018 5:35am CST
Clear
Clear
 Wind from SE
Wind: SE 3 mph , 6 km/h
Temperature: 41°F , 5°C
Dew Point: 37°F , 3°C
Humidity: 87%
Barometer: 30.29 inHg , 1025.7 hPa
Clouds: Clear
Visibility: 8 miles , 13 km
2018/02/25 11:35 KHAF 251135Z AUTO 13003KT 8SM CLR 05/03 A3029 RMK AO2
 
KHWD - Hayward, California, USA
Distance from station: N 28mi, 44km
Updated: Sun, 02-25-2018 4:54am CST
Clear
Clear
 Wind from NE
Wind: NE 5 mph , 7 km/h
Temperature: 39°F , 4°C
Wind Chill: 35°F , 2°C
Dew Point: 34°F , 1°C
Humidity: 81%
Barometer: 30.33 inHg , 1027.1 hPa
Clouds: Clear
Visibility: 10 miles , 16 km
2018/02/25 10:54 KHWD 251054Z AUTO 05004KT 10SM CLR 04/01 A3033 RMK AO2 SLP279 T00440006
KLVK - Livermore, California, USA
Distance from station: NNE 31mi, 51km
Updated: Sun, 02-25-2018 4:53am CST
Clear
Clear
 Wind from calm
Wind: Calm
Temperature: 34°F , 1°C
Dew Point: 32°F , 0°C
Humidity: 93%
Barometer: 30.31 inHg , 1026.4 hPa
Clouds: Clear
Visibility: 10 miles , 16 km
2018/02/25 10:53 KLVK 251053Z AUTO 00000KT 10SM CLR 01/00 A3031 RMK AO2 SLP267 T00110000